Time;durP1;ratioP1;P1;durP2;ratioP2;P2;SDS_P1;SDS_P2;PMS_P1;PMS_P2;Temp;Humidity;BMP_temperature;BMP_pressure;BME280_temperature;BME280_humidity;BME280_pressure;Samples;Min_cycle;Max_cycle;Signal;HPM_P1;HPM_P2
2021/12/04 00:00:06;;;;;;;31.07;23.87;;;3.60;99.90;;;;;;5029123;28;20185;-82
2021/12/04 00:02:39;;;;;;;31.23;22.40;;;3.60;99.90;;;;;;5026866;28;20178;-83
2021/12/04 00:05:06;;;;;;;30.03;22.63;;;3.60;99.90;;;;;;5010151;28;20243;-82
2021/12/04 00:07:33;;;;;;;33.67;23.80;;;3.50;99.90;;;;;;5026789;28;20194;-82
2021/12/04 00:10:03;;;;;;;31.83;22.20;;;3.50;99.90;;;;;;5013165;28;20224;-83
2021/12/04 00:12:33;;;;;;;27.33;19.43;;;3.60;99.90;;;;;;5031596;28;20208;-82
2021/12/04 00:15:01;;;;;;;28.60;21.73;;;3.60;99.90;;;;;;5021227;28;20166;-82
2021/12/04 00:17:27;;;;;;;32.40;23.30;;;3.70;99.90;;;;;;5028875;28;20193;-82
2021/12/04 00:19:54;;;;;;;31.93;23.57;;;3.70;99.90;;;;;;5023728;28;20273;-82
2021/12/04 00:22:20;;;;;;;33.40;23.40;;;3.60;99.90;;;;;;5013020;28;20179;-82
2021/12/04 00:24:46;;;;;;;30.07;23.07;;;3.60;99.90;;;;;;5025053;28;20449;-83
2021/12/04 00:27:12;;;;;;;30.50;23.30;;;3.60;99.90;;;;;;5013689;28;20174;-83
2021/12/04 00:29:37;;;;;;;32.17;22.97;;;3.60;99.90;;;;;;5027975;28;20182;-82
2021/12/04 00:32:12;;;;;;;31.37;23.23;;;3.70;99.90;;;;;;5012255;28;20309;-83
2021/12/04 00:34:42;;;;;;;33.17;22.93;;;3.70;99.90;;;;;;5012199;28;20179;-84
2021/12/04 00:37:19;;;;;;;34.90;24.43;;;3.60;99.90;;;;;;5015201;28;20178;-84
2021/12/04 00:50:44;;;;;;;37.00;25.20;;;3.60;99.90;;;;;;5042136;28;20174;-83
2021/12/04 00:53:12;;;;;;;31.63;23.93;;;3.60;99.90;;;;;;5016801;28;20603;-84
2021/12/04 00:55:37;;;;;;;33.40;23.97;;;3.60;99.90;;;;;;5016886;28;20269;-82
2021/12/04 00:58:04;;;;;;;35.77;25.57;;;3.60;99.90;;;;;;5044100;28;20190;-80
2021/12/04 01:00:29;;;;;;;36.33;25.93;;;3.70;99.90;;;;;;5045137;28;20198;-80
2021/12/04 01:02:55;;;;;;;34.23;25.10;;;3.70;99.90;;;;;;5047440;28;20189;-80
2021/12/04 01:05:21;;;;;;;35.50;23.70;;;3.80;99.90;;;;;;5046694;28;20186;-81
2021/12/04 01:07:47;;;;;;;35.93;25.53;;;3.80;99.90;;;;;;5030634;28;20212;-81
2021/12/04 01:10:12;;;;;;;38.03;24.77;;;3.80;99.90;;;;;;5030064;28;20169;-80
2021/12/04 01:12:38;;;;;;;34.50;25.13;;;3.80;99.90;;;;;;5029900;28;20278;-81
2021/12/04 01:15:06;;;;;;;34.37;24.03;;;3.70;99.90;;;;;;5045807;28;20173;-80
2021/12/04 01:17:32;;;;;;;34.10;24.13;;;3.80;99.90;;;;;;5029292;28;20229;-80
2021/12/04 01:19:58;;;;;;;33.70;24.40;;;3.80;99.90;;;;;;5028263;28;20221;-80
2021/12/04 01:22:25;;;;;;;36.20;25.27;;;3.80;99.90;;;;;;5027848;28;20205;-82
2021/12/04 01:24:50;;;;;;;35.13;24.43;;;3.80;99.90;;;;;;5031292;28;20182;-83
2021/12/04 01:27:16;;;;;;;35.50;25.10;;;3.80;99.90;;;;;;5040190;28;20190;-81
2021/12/04 01:29:42;;;;;;;33.53;23.93;;;3.90;99.90;;;;;;5033903;28;20178;-80
2021/12/04 01:32:13;;;;;;;31.97;23.37;;;3.80;99.90;;;;;;5034354;28;20677;-80
2021/12/04 01:34:39;;;;;;;31.17;23.03;;;3.80;99.90;;;;;;5011797;28;20206;-80
2021/12/04 01:37:05;;;;;;;34.73;24.40;;;3.90;99.90;;;;;;5029115;28;20639;-79
2021/12/04 01:39:31;;;;;;;31.43;22.93;;;4.00;99.90;;;;;;5006977;28;20534;-79
2021/12/04 01:41:57;;;;;;;30.93;23.07;;;3.90;99.90;;;;;;5010182;28;20189;-78
2021/12/04 01:44:22;;;;;;;29.43;21.87;;;3.90;99.90;;;;;;5006141;28;20205;-79
2021/12/04 01:46:49;;;;;;;30.13;21.97;;;3.90;99.90;;;;;;5024113;28;20178;-80
2021/12/04 01:49:16;;;;;;;32.33;22.70;;;3.80;99.90;;;;;;5029619;28;20202;-84
2021/12/04 01:51:45;;;;;;;31.87;23.07;;;3.80;99.90;;;;;;5008763;28;20195;-80
2021/12/04 01:54:11;;;;;;;27.13;20.60;;;3.80;99.90;;;;;;5027550;28;20202;-79
2021/12/04 01:56:36;;;;;;;30.33;22.33;;;3.90;99.90;;;;;;5026598;28;20189;-80
2021/12/04 01:59:03;;;;;;;29.30;21.30;;;3.80;99.90;;;;;;5009958;28;20324;-80
2021/12/04 02:01:32;;;;;;;29.37;22.40;;;3.90;99.90;;;;;;5030649;28;20175;-81
2021/12/04 02:03:57;;;;;;;29.33;21.33;;;3.90;99.90;;;;;;5033182;28;20170;-81
2021/12/04 02:06:23;;;;;;;30.90;21.43;;;3.90;99.90;;;;;;5014784;28;20549;-80
2021/12/04 02:08:49;;;;;;;28.93;21.20;;;3.90;99.90;;;;;;5030594;28;20189;-80
2021/12/04 02:11:15;;;;;;;29.47;21.57;;;3.90;99.90;;;;;;5034205;28;20170;-84
2021/12/04 02:13:40;;;;;;;31.27;22.30;;;4.00;99.90;;;;;;5031821;28;20202;-82
2021/12/04 02:16:17;;;;;;;28.13;21.23;;;4.00;99.90;;;;;;5015273;28;20193;-80
2021/12/04 02:18:44;;;;;;;28.43;21.80;;;3.90;99.90;;;;;;5008582;28;20678;-80
2021/12/04 02:21:10;;;;;;;27.33;18.40;;;4.00;99.90;;;;;;5028485;28;20174;-79
2021/12/04 02:23:35;;;;;;;28.80;21.37;;;4.00;99.90;;;;;;5011518;28;20187;-80
2021/12/04 02:26:04;;;;;;;28.67;21.73;;;4.10;99.90;;;;;;5030036;28;20682;-80
2021/12/04 02:28:30;;;;;;;29.57;20.73;;;4.10;99.90;;;;;;5013017;28;20203;-80
2021/12/04 02:30:59;;;;;;;29.70;21.63;;;4.00;99.90;;;;;;5030091;28;20178;-80
2021/12/04 02:33:25;;;;;;;28.67;21.43;;;4.10;99.90;;;;;;5035153;28;20198;-80
2021/12/04 02:35:54;;;;;;;30.57;21.67;;;4.00;99.90;;;;;;5036619;28;20166;-79
2021/12/04 02:38:23;;;;;;;33.13;23.60;;;3.90;99.90;;;;;;5031615;28;20665;-79
2021/12/04 02:40:50;;;;;;;31.03;23.23;;;3.80;99.90;;;;;;5022251;28;20167;-79
2021/12/04 02:43:16;;;;;;;33.80;23.07;;;3.90;99.90;;;;;;5017189;28;20252;-79
2021/12/04 02:45:42;;;;;;;31.70;22.63;;;4.00;99.90;;;;;;5037596;28;20550;-79
2021/12/04 02:48:11;;;;;;;33.60;23.53;;;3.90;99.90;;;;;;5035165;28;20198;-80
2021/12/04 02:50:38;;;;;;;33.83;24.03;;;3.90;99.90;;;;;;5031667;28;20184;-80
2021/12/04 02:53:04;;;;;;;31.87;24.30;;;3.90;99.90;;;;;;5024360;28;20256;-80
2021/12/04 02:55:29;;;;;;;31.30;24.00;;;3.90;99.90;;;;;;5012144;28;20179;-79
2021/12/04 02:57:55;;;;;;;35.60;25.50;;;3.90;99.90;;;;;;5010555;28;20684;-80
2021/12/04 03:00:23;;;;;;;34.40;25.50;;;3.90;99.90;;;;;;5024340;28;20177;-81
2021/12/04 03:02:52;;;;;;;35.97;25.17;;;3.90;99.90;;;;;;5010634;28;20178;-80
2021/12/04 03:05:27;;;;;;;43.33;27.23;;;3.90;99.90;;;;;;5010392;28;20194;-80
2021/12/04 03:07:58;;;;;;;38.60;26.47;;;3.90;99.90;;;;;;5013673;28;20194;-78
2021/12/04 03:10:24;;;;;;;29.77;19.47;;;3.80;99.90;;;;;;5007790;28;20186;-79
2021/12/04 03:12:50;;;;;;;41.33;26.63;;;3.80;99.90;;;;;;5026961;28;20198;-79
2021/12/04 03:15:20;;;;;;;35.57;25.40;;;3.80;99.90;;;;;;5026901;28;20221;-80
2021/12/04 03:17:45;;;;;;;38.83;25.83;;;3.80;99.90;;;;;;5029366;28;20198;-80
2021/12/04 03:20:11;;;;;;;36.13;25.03;;;3.90;99.90;;;;;;5009651;28;20249;-78
2021/12/04 03:22:40;;;;;;;36.67;26.10;;;3.90;99.90;;;;;;5027783;28;20641;-78
2021/12/04 03:25:35;;;;;;;41.57;27.60;;;3.90;99.90;;;;;;5022042;28;20212;-78
2021/12/04 03:28:05;;;;;;;39.57;26.37;;;3.90;99.90;;;;;;5025425;28;20265;-78
2021/12/04 03:30:48;;;;;;;40.03;27.17;;;3.90;99.90;;;;;;5000676;28;20594;-78
2021/12/04 03:41:14;;;;;;;42.37;27.20;;;3.80;99.90;;;;;;5028084;28;20182;-78
2021/12/04 03:43:40;;;;;;;39.73;27.80;;;3.80;99.90;;;;;;5007086;28;20207;-79
2021/12/04 03:46:09;;;;;;;37.70;27.10;;;3.90;99.90;;;;;;5000543;28;20220;-78
2021/12/04 03:51:05;;;;;;;40.73;27.57;;;3.90;99.90;;;;;;5036664;28;20174;-78
2021/12/04 03:53:31;;;;;;;38.93;27.77;;;4.00;99.90;;;;;;5020773;28;20205;-79
2021/12/04 03:55:57;;;;;;;36.47;25.83;;;4.20;99.90;;;;;;4997231;28;20179;-78
2021/12/04 03:58:23;;;;;;;35.73;25.10;;;4.20;99.90;;;;;;5023686;28;20601;-79
2021/12/04 04:00:49;;;;;;;38.40;26.90;;;4.30;99.90;;;;;;5017494;28;20625;-79
2021/12/04 04:03:15;;;;;;;36.30;26.00;;;4.40;99.90;;;;;;5025277;28;20264;-78
2021/12/04 04:05:40;;;;;;;32.50;25.33;;;4.30;99.90;;;;;;5029338;28;20210;-79
2021/12/04 04:08:06;;;;;;;34.77;25.17;;;4.30;99.90;;;;;;5023520;28;20297;-80
2021/12/04 04:10:33;;;;;;;35.43;25.03;;;4.30;99.90;;;;;;5003617;28;20186;-79
2021/12/04 04:12:59;;;;;;;36.00;26.03;;;4.30;99.90;;;;;;5027482;28;20226;-79
2021/12/04 04:15:25;;;;;;;33.87;25.00;;;4.30;99.90;;;;;;5025812;28;20175;-80
2021/12/04 04:17:52;;;;;;;35.30;25.00;;;4.30;99.90;;;;;;5022181;28;20194;-78
2021/12/04 04:20:21;;;;;;;33.33;24.33;;;4.40;99.90;;;;;;5015187;28;20193;-79
2021/12/04 04:22:48;;;;;;;34.73;25.10;;;4.30;99.90;;;;;;5006654;28;20185;-78
2021/12/04 04:25:15;;;;;;;35.07;25.20;;;4.10;99.90;;;;;;5027657;28;20189;-79
2021/12/04 04:27:45;;;;;;;35.40;25.40;;;4.10;99.90;;;;;;5006821;28;20205;-78
2021/12/04 04:30:14;;;;;;;36.43;25.10;;;4.10;99.90;;;;;;5028527;28;20542;-79
2021/12/04 04:32:45;;;;;;;37.03;24.83;;;4.00;99.90;;;;;;5024559;28;20202;-79
2021/12/04 04:35:20;;;;;;;33.87;24.37;;;4.00;99.90;;;;;;5013529;28;20265;-79
2021/12/04 05:10:18;;;;;;;34.37;23.57;;;4.00;99.90;;;;;;5034872;28;20198;-79
2021/12/04 05:10:50;;;;;;;32.80;22.20;;;4.00;99.90;;;;;;5040884;28;20176;-79
2021/12/04 05:13:17;;;;;;;30.10;21.90;;;4.10;99.90;;;;;;5046785;28;20209;-79
2021/12/04 05:20:42;;;;;;;29.67;21.93;;;4.10;99.90;;;;;;5035760;28;20254;-79
2021/12/04 05:23:10;;;;;;;29.77;21.80;;;4.30;99.90;;;;;;5007848;28;20187;-79
2021/12/04 05:25:36;;;;;;;27.63;21.27;;;4.30;99.90;;;;;;5007257;28;20186;-79
2021/12/04 05:28:04;;;;;;;30.73;21.33;;;4.30;99.90;;;;;;5003075;28;20253;-79
2021/12/04 05:30:30;;;;;;;25.90;20.63;;;4.30;99.90;;;;;;5010412;28;20645;-78
2021/12/04 05:32:56;;;;;;;26.07;20.27;;;4.30;99.90;;;;;;5003281;28;20284;-78
2021/12/04 05:35:28;;;;;;;26.93;20.63;;;4.30;99.90;;;;;;5020462;28;20622;-78
2021/12/04 05:37:54;;;;;;;30.20;21.80;;;4.30;99.90;;;;;;5011503;28;20205;-77
2021/12/04 05:40:20;;;;;;;27.97;21.30;;;4.20;99.90;;;;;;4999347;28;20186;-78
2021/12/04 05:42:46;;;;;;;28.03;21.00;;;4.20;99.90;;;;;;5030421;28;20182;-77
2021/12/04 05:45:22;;;;;;;30.57;22.23;;;4.30;99.90;;;;;;5023805;28;20183;-78
2021/12/04 05:48:14;;;;;;;27.10;21.10;;;4.40;99.90;;;;;;5015191;28;20198;-78
2021/12/04 05:53:22;;;;;;;27.37;21.17;;;4.30;99.90;;;;;;5041830;28;20199;-78
2021/12/04 05:55:55;;;;;;;26.53;20.63;;;4.40;99.90;;;;;;5008992;28;20265;-78
2021/12/04 05:58:28;;;;;;;26.90;20.50;;;4.30;99.90;;;;;;5016328;28;20264;-77
2021/12/04 06:00:56;;;;;;;30.70;21.90;;;4.40;99.90;;;;;;4999977;28;20162;-78
2021/12/04 06:03:22;;;;;;;30.57;20.33;;;4.40;99.90;;;;;;5019078;28;20177;-78
2021/12/04 06:05:48;;;;;;;30.23;21.37;;;4.40;99.90;;;;;;5013832;28;20183;-78
2021/12/04 06:08:13;;;;;;;31.27;22.17;;;4.40;99.90;;;;;;5006672;28;20204;-77
2021/12/04 06:10:39;;;;;;;31.43;21.43;;;4.40;99.90;;;;;;5025357;28;20209;-78
2021/12/04 06:13:05;;;;;;;29.43;22.60;;;4.40;99.90;;;;;;5000054;28;20206;-78
2021/12/04 06:15:31;;;;;;;30.60;21.63;;;4.40;99.90;;;;;;5006523;28;20213;-78
2021/12/04 06:17:57;;;;;;;27.67;21.30;;;4.40;99.90;;;;;;5007120;28;20210;-78
2021/12/04 06:23:08;;;;;;;29.90;21.30;;;4.10;99.90;;;;;;5032079;28;20175;-78
2021/12/04 06:25:35;;;;;;;29.10;20.53;;;4.00;99.90;;;;;;5010151;28;20179;-78
2021/12/04 06:28:01;;;;;;;27.10;19.90;;;4.20;99.90;;;;;;5008255;28;20193;-78
2021/12/04 06:30:28;;;;;;;27.50;19.80;;;4.20;99.90;;;;;;5001174;28;20205;-78
2021/12/04 06:32:54;;;;;;;28.33;20.20;;;4.30;99.90;;;;;;5000262;28;20289;-78
2021/12/04 06:35:23;;;;;;;26.20;19.03;;;4.30;99.90;;;;;;5017168;28;20229;-78
2021/12/04 06:37:48;;;;;;;24.87;18.53;;;4.20;99.90;;;;;;5015553;28;20214;-78
2021/12/04 06:40:17;;;;;;;28.83;19.83;;;4.10;99.90;;;;;;5017415;28;20684;-78
2021/12/04 06:42:44;;;;;;;25.07;18.40;;;3.90;99.90;;;;;;5020384;28;20191;-78
2021/12/04 06:45:11;;;;;;;27.53;19.27;;;4.00;99.90;;;;;;5011343;28;20194;-78
2021/12/04 06:47:38;;;;;;;29.10;19.43;;;3.80;99.90;;;;;;5016222;28;20203;-78
2021/12/04 06:50:13;;;;;;;26.50;19.83;;;3.80;99.90;;;;;;5019882;28;20182;-78
2021/12/04 06:52:44;;;;;;;27.53;19.33;;;3.80;99.90;;;;;;5020896;28;20550;-78
2021/12/04 06:55:10;;;;;;;22.97;17.77;;;3.70;99.90;;;;;;5022105;28;20641;-78
2021/12/04 06:57:40;;;;;;;23.87;17.67;;;3.80;99.90;;;;;;5028546;28;20194;-78
2021/12/04 07:00:10;;;;;;;21.97;16.80;;;3.90;99.90;;;;;;5013240;28;20162;-78
2021/12/04 07:02:35;;;;;;;24.23;17.60;;;4.00;99.90;;;;;;5000975;28;20186;-78
2021/12/04 07:05:01;;;;;;;23.40;16.47;;;4.10;99.90;;;;;;5008264;28;20174;-78
2021/12/04 07:07:27;;;;;;;21.47;16.17;;;4.00;99.90;;;;;;5023701;28;20198;-78
2021/12/04 07:09:52;;;;;;;22.83;16.83;;;4.00;99.90;;;;;;5021079;28;20186;-78
2021/12/04 07:12:18;;;;;;;22.23;15.97;;;4.20;99.90;;;;;;5024691;28;20217;-78
2021/12/04 07:14:44;;;;;;;21.23;15.67;;;4.10;99.90;;;;;;5007047;28;20231;-78
2021/12/04 07:17:13;;;;;;;20.10;15.57;;;4.10;99.90;;;;;;5019378;28;20186;-77
2021/12/04 07:19:39;;;;;;;21.90;15.80;;;4.20;99.90;;;;;;5013200;28;20187;-78
2021/12/04 07:22:07;;;;;;;19.77;15.60;;;4.20;99.90;;;;;;5026347;28;20173;-78
2021/12/04 07:24:34;;;;;;;18.17;14.50;;;4.30;99.90;;;;;;5020575;28;20182;-78
2021/12/04 07:27:00;;;;;;;18.97;14.33;;;4.20;99.90;;;;;;5008186;28;20167;-78
2021/12/04 07:29:26;;;;;;;21.23;14.97;;;4.10;99.90;;;;;;4996208;28;20302;-78
2021/12/04 07:31:52;;;;;;;18.80;13.70;;;4.30;99.90;;;;;;5008124;28;20330;-78
2021/12/04 07:34:18;;;;;;;16.63;13.73;;;4.40;99.90;;;;;;5027222;28;20265;-78
2021/12/04 07:36:43;;;;;;;17.07;13.63;;;4.20;99.90;;;;;;5013542;28;20178;-78
2021/12/04 07:39:09;;;;;;;17.43;14.27;;;4.20;99.90;;;;;;5004589;28;20200;-78
2021/12/04 07:41:38;;;;;;;19.30;12.97;;;4.20;99.90;;;;;;5014207;28;20223;-78
2021/12/04 07:44:08;;;;;;;18.60;14.07;;;4.40;99.90;;;;;;5007610;28;20538;-78
2021/12/04 07:46:35;;;;;;;18.30;13.37;;;4.50;99.90;;;;;;5006321;28;20182;-78
2021/12/04 07:49:01;;;;;;;15.90;13.17;;;4.50;99.90;;;;;;5031862;28;20200;-78
2021/12/04 07:51:27;;;;;;;15.40;13.33;;;4.60;99.90;;;;;;5005033;28;20187;-78
2021/12/04 07:53:53;;;;;;;16.80;13.87;;;4.50;99.90;;;;;;5013412;28;20205;-77
2021/12/04 07:56:18;;;;;;;18.17;13.93;;;4.50;99.90;;;;;;5026006;28;20221;-78
2021/12/04 07:58:45;;;;;;;16.10;13.37;;;4.50;99.90;;;;;;5029903;28;20226;-77
2021/12/04 08:01:10;;;;;;;18.07;13.50;;;4.40;99.90;;;;;;5021653;28;20197;-78
2021/12/04 08:03:37;;;;;;;18.23;13.83;;;4.40;99.90;;;;;;5013039;28;20186;-78
2021/12/04 08:06:03;;;;;;;17.23;13.07;;;4.40;99.90;;;;;;5014108;28;20178;-78
2021/12/04 08:08:29;;;;;;;15.70;12.83;;;4.30;99.90;;;;;;5024389;28;20194;-78
2021/12/04 08:10:54;;;;;;;17.27;13.20;;;4.40;99.90;;;;;;5010653;28;20185;-78
2021/12/04 08:13:28;;;;;;;18.00;13.10;;;4.40;99.90;;;;;;5027788;28;20292;-78
2021/12/04 08:15:54;;;;;;;17.67;13.03;;;4.40;99.90;;;;;;5011451;28;20573;-78
2021/12/04 08:18:23;;;;;;;17.03;13.37;;;4.30;99.90;;;;;;5023040;28;20681;-78
2021/12/04 08:20:54;;;;;;;17.97;14.07;;;4.30;99.90;;;;;;5016650;28;20642;-78
2021/12/04 08:23:30;;;;;;;18.80;13.40;;;4.30;99.90;;;;;;5019329;28;20182;-78
2021/12/04 08:26:14;;;;;;;17.40;12.87;;;4.50;99.90;;;;;;5009872;28;20181;-78
2021/12/04 08:28:41;;;;;;;20.47;13.33;;;4.60;99.90;;;;;;4999732;28;20198;-78
2021/12/04 08:31:07;;;;;;;18.60;13.40;;;4.50;99.90;;;;;;5016209;28;20180;-77
2021/12/04 08:33:36;;;;;;;20.60;14.33;;;4.50;99.90;;;;;;5004054;28;20205;-78
2021/12/04 08:36:32;;;;;;;17.33;13.33;;;4.40;99.90;;;;;;5008586;28;20211;-78
2021/12/04 08:38:59;;;;;;;18.27;13.67;;;4.50;99.90;;;;;;5013960;28;20658;-80
2021/12/04 08:41:41;;;;;;;17.07;12.63;;;4.60;99.90;;;;;;5004394;28;20171;-78
2021/12/04 08:44:08;;;;;;;16.93;12.80;;;4.60;99.90;;;;;;5022977;28;20179;-78
2021/12/04 08:46:49;;;;;;;15.67;12.60;;;4.60;99.90;;;;;;5005178;28;20619;-78
2021/12/04 08:49:17;;;;;;;16.53;12.77;;;4.70;99.90;;;;;;5000699;28;20289;-78
2021/12/04 08:51:51;;;;;;;15.07;12.43;;;4.80;99.90;;;;;;5029614;28;20256;-78
2021/12/04 08:54:19;;;;;;;15.50;11.77;;;4.90;99.90;;;;;;5011138;28;20166;-78
2021/12/04 08:56:44;;;;;;;14.50;11.57;;;4.90;99.90;;;;;;5018170;28;20221;-80
2021/12/04 08:59:10;;;;;;;14.60;11.83;;;4.90;99.90;;;;;;5012633;28;20192;-77
2021/12/04 09:01:46;;;;;;;15.50;12.40;;;4.80;99.90;;;;;;5028927;28;20174;-79
2021/12/04 09:04:16;;;;;;;15.27;12.00;;;4.90;99.90;;;;;;5022060;28;20183;-80
2021/12/04 09:06:42;;;;;;;16.80;13.57;;;5.00;99.90;;;;;;5030797;28;20259;-78
2021/12/04 09:09:11;;;;;;;18.10;12.80;;;5.00;99.90;;;;;;5027248;28;20229;-78
2021/12/04 09:11:49;;;;;;;20.73;13.07;;;5.00;99.90;;;;;;5028934;28;20174;-78
2021/12/04 09:14:17;;;;;;;18.50;14.13;;;4.90;99.90;;;;;;4998708;28;20182;-78
2021/12/04 09:16:44;;;;;;;22.73;14.37;;;4.90;99.90;;;;;;4999208;28;20175;-78
2021/12/04 09:19:10;;;;;;;18.50;14.23;;;4.90;99.90;;;;;;5005669;28;20534;-79
2021/12/04 09:21:38;;;;;;;20.03;14.23;;;4.90;99.90;;;;;;5023809;28;20542;-78
2021/12/04 09:24:15;;;;;;;21.47;15.17;;;4.90;99.90;;;;;;4998448;28;20183;-78
2021/12/04 09:27:07;;;;;;;19.30;13.80;;;5.00;99.90;;;;;;5012650;28;20176;-79
2021/12/04 09:59:47;;;;;;;16.17;12.70;;;5.00;99.90;;;;;;5037624;28;20195;-78
2021/12/04 10:21:35;;;;;;;18.70;13.90;;;5.00;99.90;;;;;;5040417;28;20202;-79
2021/12/04 10:24:29;;;;;;;19.73;14.20;;;5.00;99.90;;;;;;5024805;28;20177;-79
2021/12/04 10:34:48;;;;;;;18.17;13.83;;;4.90;99.90;;;;;;5046881;28;20178;-78
2021/12/04 10:37:24;;;;;;;18.83;13.83;;;5.00;99.90;;;;;;5026164;28;20245;-79
2021/12/04 10:40:03;;;;;;;17.90;12.83;;;4.80;99.90;;;;;;5011283;28;20297;-79
2021/12/04 10:42:40;;;;;;;19.27;12.97;;;4.70;99.90;;;;;;5022504;28;20187;-79
2021/12/04 10:45:12;;;;;;;16.43;12.53;;;4.80;99.90;;;;;;5013935;28;20162;-77
2021/12/04 10:47:48;;;;;;;16.53;13.77;;;4.70;99.90;;;;;;5021240;28;20202;-79
2021/12/04 10:53:10;;;;;;;19.33;12.60;;;4.80;99.90;;;;;;5040708;28;20205;-79
2021/12/04 10:55:49;;;;;;;16.40;12.77;;;4.90;99.90;;;;;;5039235;28;20233;-79
2021/12/04 11:06:41;;;;;;;14.67;11.17;;;5.00;99.90;;;;;;5031569;28;20178;-78
2021/12/04 11:43:17;;;;;;;23.47;14.03;;;4.90;99.90;;;;;;5040162;28;20178;-79
2021/12/04 11:48:33;;;;;;;17.33;13.10;;;4.90;99.90;;;;;;5038813;28;20858;-78
2021/12/04 11:51:00;;;;;;;17.30;13.47;;;4.90;99.90;;;;;;5026451;28;20163;-79
2021/12/04 11:53:27;;;;;;;19.47;13.30;;;4.80;99.90;;;;;;5004447;28;20241;-77
2021/12/04 11:55:53;;;;;;;16.70;12.80;;;4.80;99.90;;;;;;5026800;28;20177;-77
2021/12/04 11:58:24;;;;;;;15.70;11.90;;;4.80;99.90;;;;;;5018208;28;20198;-78
2021/12/04 12:01:00;;;;;;;15.30;12.10;;;4.90;99.90;;;;;;5039030;28;20187;-78
2021/12/04 12:03:56;;;;;;;17.70;13.07;;;4.80;99.90;;;;;;5026140;28;20201;-79
2021/12/04 12:06:42;;;;;;;18.17;13.37;;;4.80;99.90;;;;;;5013506;28;20178;-79
2021/12/04 12:09:25;;;;;;;15.73;12.63;;;4.90;99.90;;;;;;5015330;28;20229;-77
2021/12/04 12:12:02;;;;;;;16.93;13.73;;;4.90;99.90;;;;;;5011064;28;20199;-80
2021/12/04 12:14:40;;;;;;;14.47;11.40;;;4.90;99.90;;;;;;5010510;28;20205;-79
2021/12/04 12:17:10;;;;;;;12.57;9.97;;;4.80;99.90;;;;;;5007762;28;20182;-79
2021/12/04 12:19:41;;;;;;;12.37;10.07;;;4.90;99.90;;;;;;5004667;28;20223;-79
2021/12/04 12:22:24;;;;;;;12.53;10.23;;;5.00;99.90;;;;;;4997319;28;20175;-79
2021/12/04 12:24:56;;;;;;;13.10;10.17;;;5.10;99.90;;;;;;5016296;28;20257;-78
2021/12/04 12:31:48;;;;;;;12.53;9.50;;;5.20;99.90;;;;;;5008849;28;20162;-78
2021/12/04 12:34:12;;;;;;;13.67;10.73;;;5.30;99.90;;;;;;5034239;28;20231;-79
2021/12/04 12:36:39;;;;;;;15.50;12.03;;;5.00;99.90;;;;;;5013320;28;20245;-79
2021/12/04 12:39:05;;;;;;;17.77;12.67;;;5.00;99.90;;;;;;5025781;28;20225;-78
2021/12/04 12:41:50;;;;;;;15.13;11.90;;;5.20;99.90;;;;;;5042094;28;20214;-78
2021/12/04 12:44:25;;;;;;;18.93;13.30;;;5.10;99.90;;;;;;5013414;28;20185;-79
2021/12/04 12:47:15;;;;;;;18.20;12.37;;;5.20;99.90;;;;;;5009640;28;20185;-79
2021/12/04 12:49:43;;;;;;;17.27;12.27;;;5.10;99.90;;;;;;5013598;28;20241;-79
2021/12/04 12:52:27;;;;;;;16.83;13.17;;;5.00;99.90;;;;;;5010739;28;20720;-79
2021/12/04 12:55:21;;;;;;;18.83;13.37;;;4.90;99.90;;;;;;5025831;28;20237;-79
2021/12/04 12:57:48;;;;;;;18.53;13.30;;;4.90;99.90;;;;;;5003217;28;20203;-78
2021/12/04 13:12:05;;;;;;;14.63;11.40;;;4.80;99.90;;;;;;5043076;28;20189;-78
2021/12/04 13:14:40;;;;;;;15.13;11.60;;;4.70;99.90;;;;;;5005579;28;20220;-79
2021/12/04 13:17:26;;;;;;;15.03;11.43;;;4.80;99.90;;;;;;5047108;28;20178;-77
2021/12/04 13:20:02;;;;;;;14.47;11.57;;;4.80;99.90;;;;;;5012808;28;20281;-79
2021/12/04 13:22:32;;;;;;;11.40;9.63;;;4.90;99.90;;;;;;5026293;28;20181;-79
2021/12/04 13:25:01;;;;;;;11.43;9.83;;;4.90;99.90;;;;;;5011428;28;20178;-79
2021/12/04 13:30:20;;;;;;;11.10;9.57;;;5.00;99.90;;;;;;5032192;28;20180;-78
2021/12/04 13:32:46;;;;;;;14.40;10.57;;;4.90;99.90;;;;;;5020077;28;20194;-78
2021/12/04 13:35:20;;;;;;;15.40;11.83;;;4.80;99.90;;;;;;5009757;28;20174;-78
2021/12/04 13:37:47;;;;;;;16.27;12.70;;;4.70;99.90;;;;;;5011645;28;20207;-78
2021/12/04 13:40:16;;;;;;;15.63;13.47;;;4.70;99.90;;;;;;5022683;28;20542;-77
2021/12/04 13:42:43;;;;;;;22.00;14.17;;;4.60;99.90;;;;;;5007903;28;20186;-79
2021/12/04 13:45:15;;;;;;;20.87;15.30;;;4.50;99.90;;;;;;5005930;28;20186;-78
2021/12/04 13:47:42;;;;;;;21.43;15.30;;;4.50;99.90;;;;;;5012165;28;20190;-78
2021/12/04 13:53:12;;;;;;;23.57;16.10;;;4.40;99.90;;;;;;5032039;28;20277;-77
2021/12/04 13:55:41;;;;;;;23.70;15.97;;;4.40;99.90;;;;;;5002454;28;20186;-77
2021/12/04 13:58:07;;;;;;;23.70;16.80;;;4.30;99.90;;;;;;5005344;28;20190;-77
2021/12/04 14:00:33;;;;;;;23.40;16.73;;;4.30;99.90;;;;;;5012465;28;20194;-77
2021/12/04 14:03:06;;;;;;;20.97;14.90;;;4.20;99.90;;;;;;5008728;28;20186;-77
2021/12/04 14:05:32;;;;;;;22.97;16.50;;;4.10;99.90;;;;;;5005054;28;20178;-76
2021/12/04 14:08:01;;;;;;;21.27;15.83;;;4.10;99.90;;;;;;5027645;28;20282;-78
2021/12/04 14:10:48;;;;;;;18.93;14.83;;;4.10;99.90;;;;;;5026468;28;20281;-77
2021/12/04 14:13:24;;;;;;;19.53;14.27;;;4.20;99.90;;;;;;5000872;28;20209;-79
2021/12/04 14:15:54;;;;;;;19.27;13.20;;;4.20;99.90;;;;;;5025437;28;20221;-79
2021/12/04 14:18:29;;;;;;;18.17;13.80;;;4.20;99.90;;;;;;5009014;28;20198;-78
2021/12/04 14:21:00;;;;;;;16.47;13.10;;;4.20;99.90;;;;;;5006549;28;20178;-80
2021/12/04 14:23:32;;;;;;;17.80;13.67;;;4.20;99.90;;;;;;5005036;28;20190;-80
2021/12/04 14:26:03;;;;;;;15.23;12.90;;;4.20;99.90;;;;;;5017101;28;20227;-80
2021/12/04 14:28:41;;;;;;;16.43;13.27;;;4.20;99.90;;;;;;5011638;28;20274;-79
2021/12/04 14:31:07;;;;;;;19.70;14.40;;;4.20;99.90;;;;;;5008777;28;20566;-80
2021/12/04 14:33:41;;;;;;;17.50;13.50;;;4.20;99.90;;;;;;5015025;28;20212;-79
2021/12/04 14:36:08;;;;;;;19.03;12.93;;;4.20;99.90;;;;;;5036656;28;20169;-81
2021/12/04 14:38:35;;;;;;;18.40;12.87;;;4.30;99.90;;;;;;5032060;28;20534;-80
2021/12/04 14:41:08;;;;;;;13.37;11.07;;;4.40;99.90;;;;;;5024178;28;20245;-80
2021/12/04 14:43:38;;;;;;;14.60;11.57;;;4.40;99.90;;;;;;5017861;28;20181;-80
2021/12/04 14:46:09;;;;;;;14.50;12.10;;;4.40;99.90;;;;;;4999754;28;20249;-80
2021/12/04 14:48:52;;;;;;;14.57;11.80;;;4.40;99.90;;;;;;4988173;28;20314;-79
2021/12/04 14:51:21;;;;;;;11.77;10.00;;;4.40;99.90;;;;;;5013209;28;20195;-80
2021/12/04 14:53:57;;;;;;;14.43;10.67;;;4.50;99.90;;;;;;5031496;28;20194;-80
2021/12/04 14:56:26;;;;;;;11.93;10.13;;;4.50;99.90;;;;;;5030587;28;20178;-79
2021/12/04 14:58:55;;;;;;;14.10;10.10;;;4.50;99.90;;;;;;5021745;28;20538;-80
2021/12/04 15:01:26;;;;;;;14.00;10.77;;;4.40;99.90;;;;;;5017791;28;20170;-79
2021/12/04 15:03:59;;;;;;;12.77;9.33;;;4.40;99.90;;;;;;5033773;28;20175;-80
2021/12/04 15:06:32;;;;;;;15.13;10.60;;;4.40;99.90;;;;;;5009425;28;20242;-79
2021/12/04 15:09:14;;;;;;;15.47;11.80;;;4.40;99.90;;;;;;4989859;28;20199;-79
2021/12/04 15:11:43;;;;;;;15.70;12.03;;;4.30;99.90;;;;;;5012238;28;20646;-79
2021/12/04 15:14:32;;;;;;;17.40;12.00;;;4.20;99.90;;;;;;4998120;28;20195;-80
2021/12/04 15:17:05;;;;;;;23.57;14.00;;;4.30;99.90;;;;;;4998653;28;20277;-79
2021/12/04 15:19:41;;;;;;;21.80;13.93;;;4.30;99.90;;;;;;5013721;28;20574;-79
2021/12/04 15:22:33;;;;;;;21.77;13.77;;;4.40;99.90;;;;;;5016338;28;20182;-80
2021/12/04 15:25:13;;;;;;;21.03;13.90;;;4.40;99.90;;;;;;5021442;28;20194;-79
2021/12/04 15:27:40;;;;;;;20.90;13.60;;;4.30;99.90;;;;;;5019038;28;20206;-79
2021/12/04 15:30:18;;;;;;;22.93;13.90;;;4.40;99.90;;;;;;5035815;28;20268;-79
2021/12/04 15:32:47;;;;;;;20.83;13.77;;;4.60;99.90;;;;;;5011283;28;20209;-78
2021/12/04 15:35:28;;;;;;;20.20;13.57;;;4.50;99.90;;;;;;5015996;28;20672;-79
2021/12/04 15:38:03;;;;;;;19.43;13.70;;;4.40;99.90;;;;;;5006511;28;20191;-78
2021/12/04 15:40:38;;;;;;;15.47;11.77;;;4.30;99.90;;;;;;5010737;28;20224;-79
2021/12/04 15:54:34;;;;;;;14.20;10.33;;;4.20;99.90;;;;;;5045808;28;21164;-82
2021/12/04 15:57:14;;;;;;;13.30;10.67;;;4.10;99.90;;;;;;5021792;28;20207;-79
2021/12/04 15:59:49;;;;;;;15.43;9.97;;;4.20;99.90;;;;;;5039160;28;20178;-80
2021/12/04 16:02:19;;;;;;;13.40;10.60;;;4.20;99.90;;;;;;5028355;28;20273;-80
2021/12/04 16:04:45;;;;;;;15.43;10.40;;;4.10;99.90;;;;;;5009634;28;20162;-80
2021/12/04 16:07:28;;;;;;;12.43;10.60;;;4.10;99.90;;;;;;5033278;28;20209;-78
2021/12/04 16:09:59;;;;;;;14.37;10.83;;;4.10;99.90;;;;;;5015465;28;20169;-79
2021/12/04 16:12:26;;;;;;;12.13;10.47;;;4.10;99.90;;;;;;5025877;28;20206;-79